»·PEaware :: WAT169 KSAN-KLAS

WAT169 :: KSAN-KLAS

FLIGHT INFORMATION

Flight Status: Arrived
Operator:
Walker Air Transport
More flights by this operator :: More flights under this callsign
Pilot: Marty P. (27464)
Aircraft: BOEING 737-800
(B738)
More flights by this aircraft type
Origin: KSAN San Diego Intl-Lindbergh
United States
Destination: KLAS McCarran Intl
United States
More flights between these airports :: More routes between these airports
Route: PADRZ2 CHKNN SEBBY YELAH MISEN KEPEC6
File this flight plan on PilotEdge
Remarks:
Altitude:
(Current/Filed)
33,000ft
Speed:
(Current/Filed)
470kts
Departed: 06-Jun-20 02:01 PM
Arrived: 06-Jun-20 02:55 PM
Distance/Time
Traveled:
225nm/0:54
Distance/Time
To Go:
Arrived

Flight Plot

Page will automatically refresh every two minutes.

Flight plan parsing failed; only flown route is shown


Map Options




Map Legend


Flown Route
Filed Route
Departure Airport
Arrival Airport
Navaid (VOR, NDB)
Fix

Horizontal Profiles

Position Reports

Time Latitude Longitude Heading Altitude Ground
Speed
06-Jun-20 13:26 32.732372 -117.202816 203 27ft 0kts
06-Jun-20 13:27 32.732372 -117.202816 203 27ft 0kts
06-Jun-20 13:28 32.732372 -117.202816 203 27ft 0kts
06-Jun-20 13:29 32.732372 -117.202816 203 27ft 0kts
06-Jun-20 13:30 32.732372 -117.202816 203 27ft 0kts
06-Jun-20 13:31 32.732372 -117.202816 203 27ft 0kts
06-Jun-20 13:32 32.732372 -117.202816 203 27ft 0kts
06-Jun-20 13:33 32.732372 -117.202816 203 27ft 0kts
06-Jun-20 13:34 32.732372 -117.202816 203 27ft 0kts
06-Jun-20 13:35 32.732372 -117.202816 203 27ft 0kts
06-Jun-20 13:36 32.732372 -117.202816 203 27ft 0kts
06-Jun-20 13:37 32.732372 -117.202816 203 27ft 0kts
06-Jun-20 13:38 32.732372 -117.202816 203 27ft 0kts
06-Jun-20 13:40 32.732372 -117.202816 203 27ft 0kts
06-Jun-20 13:41 32.732372 -117.202816 203 27ft 0kts
06-Jun-20 13:42 32.732372 -117.202816 203 27ft 0kts
06-Jun-20 13:43 32.732372 -117.202816 203 27ft 0kts
06-Jun-20 13:44 32.732372 -117.202816 203 27ft 0kts
06-Jun-20 13:45 32.732372 -117.202816 203 27ft 0kts
06-Jun-20 13:46 32.732372 -117.202816 203 27ft 0kts
06-Jun-20 13:47 32.732372 -117.202816 203 27ft 0kts
06-Jun-20 13:48 32.732372 -117.202816 203 27ft 0kts
06-Jun-20 13:49 32.732372 -117.202816 203 27ft 0kts
06-Jun-20 13:50 32.732709 -117.202642 215 27ft 1kts
06-Jun-20 13:51 32.732648 -117.202235 327 27ft 0kts
06-Jun-20 13:52 32.732648 -117.202236 327 27ft 0kts
06-Jun-20 13:53 32.733766 -117.202744 359 27ft 12kts
06-Jun-20 13:54 32.735002 -117.199905 106 27ft 14kts
06-Jun-20 13:54 32.733738 -117.194622 106 27ft 24kts
06-Jun-20 13:56 32.731753 -117.186479 105 27ft 19kts
06-Jun-20 13:57 32.730592 -117.181700 106 27ft 3kts
06-Jun-20 13:57 32.729767 -117.178300 106 27ft 14kts
06-Jun-20 13:59 32.729506 -117.176821 78 27ft 0kts
06-Jun-20 14:00 32.730772 -117.178162 286 27ft 34kts
06-Jun-20 14:00 32.738971 -117.213857 291 1055ft 182kts
06-Jun-20 14:01 32.774664 -117.272397 301 3846ft 239kts
06-Jun-20 14:02 32.812061 -117.338325 307 7452ft 247kts
06-Jun-20 14:03 32.854280 -117.403087 305 10800ft 252kts
06-Jun-20 14:04 32.901981 -117.477282 305 12099ft 327kts
06-Jun-20 14:05 32.959869 -117.567264 304 14681ft 347kts
06-Jun-20 14:06 33.018981 -117.659521 304 15033ft 357kts
06-Jun-20 14:07 33.083159 -117.749065 313 17931ft 363kts
06-Jun-20 14:08 33.160337 -117.827824 314 20179ft 375kts
06-Jun-20 14:09 33.241201 -117.908389 315 22202ft 387kts
06-Jun-20 14:10 33.324127 -117.988921 314 25020ft 370kts
06-Jun-20 14:11 33.399324 -118.062316 313 27933ft 342kts
06-Jun-20 14:12 33.471737 -118.133371 313 29893ft 334kts
06-Jun-20 14:13 33.543550 -118.202497 316 31502ft 333kts
06-Jun-20 14:14 33.623219 -118.260122 324 32937ft 338kts
06-Jun-20 14:15 33.712509 -118.299794 348 33049ft 368kts
06-Jun-20 14:16 33.808009 -118.248275 44 33037ft 417kts
06-Jun-20 14:17 33.879986 -118.132042 49 33033ft 453kts
06-Jun-20 14:18 33.955472 -118.005326 50 33020ft 483kts
06-Jun-20 14:19 34.034942 -117.871027 50 32994ft 508kts
06-Jun-20 14:20 34.120516 -117.733042 46 32990ft 525kts
06-Jun-20 14:21 34.211658 -117.599101 45 33035ft 526kts
06-Jun-20 14:22 34.302867 -117.465281 45 33021ft 526kts
06-Jun-20 14:23 34.394546 -117.330474 46 32969ft 527kts
06-Jun-20 14:24 34.486446 -117.194967 46 32988ft 527kts
06-Jun-20 14:25 34.579184 -117.057610 46 32946ft 520kts
06-Jun-20 14:26 34.670075 -116.922429 46 32898ft 521kts
06-Jun-20 14:27 34.761354 -116.786179 46 32865ft 520kts
06-Jun-20 14:28 34.852962 -116.654821 40 30848ft 507kts
06-Jun-20 14:29 34.960577 -116.542426 33 27019ft 510kts
06-Jun-20 14:30 35.067317 -116.438209 33 24662ft 477kts
06-Jun-20 14:31 35.161441 -116.328988 41 23821ft 484kts
06-Jun-20 14:32 35.251191 -116.217254 42 21502ft 458kts
06-Jun-20 14:33 35.338105 -116.108294 42 19153ft 446kts
06-Jun-20 14:34 35.423240 -116.000953 43 18156ft 428kts
06-Jun-20 14:35 35.506572 -115.895556 43 16220ft 427kts
06-Jun-20 14:36 35.586699 -115.793820 44 14046ft 390kts
06-Jun-20 14:37 35.653777 -115.708211 44 13302ft 323kts
06-Jun-20 14:38 35.716811 -115.627355 43 13033ft 338kts
06-Jun-20 14:39 35.796779 -115.575372 5 13027ft 325kts
06-Jun-20 14:40 35.886015 -115.568302 358 13018ft 322kts
06-Jun-20 14:41 35.970556 -115.536744 43 12958ft 331kts
06-Jun-20 14:42 36.012256 -115.435416 69 11337ft 332kts
06-Jun-20 14:43 36.027839 -115.333131 96 10588ft 289kts
06-Jun-20 14:44 36.021009 -115.235462 98 9399ft 284kts
06-Jun-20 14:45 36.014318 -115.139899 98 8283ft 277kts
06-Jun-20 14:46 36.008513 -115.050924 98 7721ft 244kts
06-Jun-20 14:47 36.006785 -114.967317 94 6317ft 240kts
06-Jun-20 14:48 36.016336 -114.891985 35 5456ft 218kts
06-Jun-20 14:49 36.069591 -114.888937 317 5044ft 188kts
06-Jun-20 14:50 36.074121 -114.948265 261 5002ft 181kts
06-Jun-20 14:51 36.073660 -115.006025 263 4136ft 157kts
06-Jun-20 14:52 36.073651 -115.059783 264 3265ft 156kts
06-Jun-20 14:53 36.073661 -115.111894 267 2452ft 152kts
06-Jun-20 14:54 36.073655 -115.147147 278 2191ft 22kts
06-Jun-20 14:55 36.076021 -115.151755 333 2191ft 12kts
06-Jun-20 14:56 36.077622 -115.152667 334 2191ft 6kts
06-Jun-20 14:57 36.080882 -115.151537 52 2191ft 11kts
06-Jun-20 14:58 36.082639 -115.148769 52 2191ft 0kts

Navigation Log

Ident Type
Flight plan parsing failed, navigation log unavailable